createdAt,value
2019-01-26T00:03:02.110Z,0.80
2019-01-26T00:08:04.728Z,0.53
2019-01-26T00:13:07.451Z,0.70
2019-01-26T00:18:10.151Z,0.80
2019-01-26T00:23:12.760Z,0.63
2019-01-26T00:28:15.174Z,0.43
2019-01-26T00:33:17.773Z,0.40
2019-01-26T00:38:20.258Z,0.30
2019-01-26T00:43:22.708Z,0.53
2019-01-26T00:48:25.208Z,0.90
2019-01-26T00:53:27.728Z,0.50
2019-01-26T00:58:30.478Z,0.50
2019-01-26T01:03:33.011Z,0.50
2019-01-26T01:08:35.615Z,0.20
2019-01-26T01:13:38.149Z,0.30
2019-01-26T01:18:40.688Z,0.40
2019-01-26T01:23:43.447Z,0.60
2019-01-26T01:28:46.171Z,0.47
2019-01-26T01:33:48.800Z,0.50
2019-01-26T01:38:51.505Z,0.50
2019-01-26T01:43:54.064Z,0.40
2019-01-26T01:48:56.909Z,0.40
2019-01-26T01:53:59.549Z,0.60
2019-01-26T01:59:02.200Z,0.50
2019-01-26T02:04:04.771Z,0.50
2019-01-26T02:09:08.545Z,0.40
2019-01-26T02:14:11.095Z,0.73
2019-01-26T02:19:13.732Z,0.50
2019-01-26T02:24:16.331Z,0.40
2019-01-26T02:29:18.915Z,0.40
2019-01-26T02:34:21.490Z,0.20
2019-01-26T02:39:23.970Z,0.60
2019-01-26T02:44:26.437Z,0.60
2019-01-26T02:49:28.935Z,0.83
2019-01-26T02:54:31.585Z,0.50
2019-01-26T02:59:35.094Z,0.50
2019-01-26T03:04:37.704Z,1.03
2019-01-26T03:09:40.345Z,0.43
2019-01-26T03:14:43.050Z,0.40
2019-01-26T03:24:55.719Z,0.57
2019-01-26T03:29:58.168Z,0.50
2019-01-26T03:35:00.735Z,0.70
2019-01-26T03:40:04.066Z,0.80
2019-01-26T03:45:08.468Z,0.60
2019-01-26T03:50:11.762Z,0.57
2019-01-26T03:55:16.865Z,0.57
2019-01-26T04:00:22.511Z,0.83
2019-01-26T04:05:25.137Z,0.37
2019-01-26T04:10:27.857Z,0.70
2019-01-26T04:15:30.307Z,0.80
2019-01-26T04:20:32.802Z,0.77
2019-01-26T04:25:35.351Z,0.60
2019-01-26T04:30:37.823Z,0.70
2019-01-26T04:35:40.396Z,0.60
2019-01-26T04:40:42.922Z,0.50
2019-01-26T04:45:45.551Z,1.00
2019-01-26T04:50:48.134Z,0.77
2019-01-26T04:55:50.667Z,0.43
2019-01-26T05:00:54.222Z,0.73
2019-01-26T05:05:56.765Z,0.97
2019-01-26T05:10:59.166Z,0.80
2019-01-26T05:16:01.616Z,1.20
2019-01-26T05:21:04.131Z,1.23
2019-01-26T05:26:06.717Z,0.63
2019-01-26T05:31:09.393Z,0.63
2019-01-26T05:36:11.986Z,0.40
2019-01-26T05:41:14.497Z,0.50
2019-01-26T05:46:16.972Z,0.50
2019-01-26T05:51:19.527Z,0.63
2019-01-26T05:56:22.070Z,0.50
2019-01-26T06:01:25.583Z,0.40
2019-01-26T06:06:28.101Z,0.60
2019-01-26T06:11:30.581Z,0.70
2019-01-26T06:16:33.306Z,1.10
2019-01-26T06:21:36.036Z,0.87
2019-01-26T06:26:38.516Z,0.60
2019-01-26T06:31:41.092Z,0.50
2019-01-26T06:36:43.611Z,0.40
2019-01-26T06:41:46.129Z,0.57
2019-01-26T06:46:48.705Z,0.57
2019-01-26T06:51:54.500Z,0.50
2019-01-26T06:56:57.047Z,0.70
2019-01-26T07:02:00.492Z,0.60
2019-01-26T07:07:08.356Z,0.33
2019-01-26T07:12:10.971Z,0.50
2019-01-26T07:17:13.510Z,0.67
2019-01-26T07:22:16.106Z,0.50
2019-01-26T07:27:18.661Z,0.93
2019-01-26T07:32:21.111Z,1.13
2019-01-26T07:37:23.656Z,0.70
2019-01-26T07:42:26.211Z,0.70
2019-01-26T07:47:28.686Z,0.60
2019-01-26T07:52:31.250Z,0.30
2019-01-26T07:57:33.866Z,0.27
2019-01-26T08:02:37.480Z,0.37
2019-01-26T08:07:40.466Z,0.63
2019-01-26T08:12:43.201Z,0.77
2019-01-26T08:17:45.766Z,0.73
2019-01-26T08:22:48.450Z,1.10
2019-01-26T08:27:51.228Z,1.23
2019-01-26T08:32:53.825Z,0.77
2019-01-26T08:37:56.300Z,0.23
2019-01-26T08:42:58.802Z,1.23
2019-01-26T08:48:01.366Z,0.73
2019-01-26T08:53:04.285Z,0.80
2019-01-26T08:58:06.786Z,1.00
2019-01-26T09:03:19.562Z,1.03
2019-01-26T09:08:22.179Z,0.87
2019-01-26T09:13:24.686Z,0.90
2019-01-26T09:18:27.200Z,1.00
2019-01-26T09:23:29.936Z,0.80
2019-01-26T09:28:32.551Z,1.03
2019-01-26T09:33:35.151Z,0.80
2019-01-26T09:38:37.752Z,1.23
2019-01-26T09:43:40.310Z,0.23
2019-01-26T09:48:46.288Z,0.73
2019-01-26T09:53:47.391Z,1.10
2019-01-26T09:58:49.953Z,0.30
2019-01-26T10:03:53.765Z,0.63
2019-01-26T10:08:56.351Z,0.40
2019-01-26T10:13:58.851Z,0.40
2019-01-26T10:19:01.391Z,0.80
2019-01-26T10:24:04.151Z,0.90
2019-01-26T10:29:06.726Z,1.10
2019-01-26T10:34:09.450Z,0.80
2019-01-26T10:39:17.753Z,0.70
2019-01-26T10:44:24.330Z,0.97
2019-01-26T10:49:26.932Z,1.37
2019-01-26T10:54:29.687Z,1.40
2019-01-26T10:59:32.354Z,0.93
2019-01-26T11:04:34.850Z,1.67
2019-01-26T11:09:37.410Z,1.00
2019-01-26T11:14:39.971Z,1.33
2019-01-26T11:19:43.912Z,1.00
2019-01-26T11:24:46.466Z,1.17
2019-01-26T11:29:49.092Z,1.53
2019-01-26T11:34:51.811Z,1.57
2019-01-26T11:40:01.768Z,0.90
2019-01-26T11:45:17.930Z,1.70
2019-01-26T11:50:27.231Z,1.50
2019-01-26T11:55:35.571Z,1.83
2019-01-26T12:00:59.433Z,0.97
2019-01-26T12:06:10.293Z,1.70
2019-01-26T12:11:12.910Z,1.50
2019-01-26T12:16:15.533Z,0.80
2019-01-26T12:21:18.291Z,1.20
2019-01-26T12:26:20.885Z,1.70
2019-01-26T12:31:23.431Z,1.47
2019-01-26T12:36:26.051Z,1.27
2019-01-26T12:41:28.827Z,1.63
2019-01-26T12:46:31.590Z,2.23
2019-01-26T12:51:34.166Z,1.87
2019-01-26T12:56:36.671Z,1.60
2019-01-26T13:01:39.151Z,3.23
2019-01-26T13:06:41.931Z,1.40
2019-01-26T13:11:45.177Z,1.70
2019-01-26T13:16:47.848Z,2.13
2019-01-26T13:21:50.473Z,1.93
2019-01-26T13:26:53.041Z,1.47
2019-01-26T13:31:58.251Z,1.20
2019-01-26T13:37:00.771Z,1.20
2019-01-26T13:42:03.451Z,1.40
2019-01-26T13:47:06.193Z,1.50
2019-01-26T13:52:08.807Z,1.80
2019-01-26T13:57:11.566Z,2.40
2019-01-26T14:02:14.551Z,1.70
2019-01-26T14:07:17.118Z,2.00
2019-01-26T14:12:19.590Z,1.90
2019-01-26T14:17:22.131Z,1.10
2019-01-26T14:22:24.632Z,2.13
2019-01-26T14:27:27.240Z,2.10
2019-01-26T14:32:29.831Z,2.77
2019-01-26T14:37:32.472Z,2.73
2019-01-26T14:42:35.071Z,2.80
2019-01-26T14:47:37.671Z,3.53
2019-01-26T14:52:40.247Z,4.37
2019-01-26T14:57:43.226Z,3.77
2019-01-26T15:02:45.831Z,4.33
2019-01-26T15:07:48.513Z,4.33
2019-01-26T15:12:51.195Z,1.73
2019-01-26T15:17:53.772Z,2.30
2019-01-26T15:22:56.773Z,2.57
2019-01-26T15:27:59.450Z,2.83
2019-01-26T15:33:02.592Z,3.43
2019-01-26T15:38:06.512Z,3.70
2019-01-26T15:43:09.266Z,2.77
2019-01-26T15:48:11.978Z,4.10
2019-01-26T15:53:14.573Z,4.00
2019-01-26T15:58:17.371Z,4.20
2019-01-26T16:03:19.950Z,3.93
2019-01-26T16:08:23.014Z,4.63
2019-01-26T16:13:25.611Z,4.03
2019-01-26T16:18:28.531Z,4.50
2019-01-26T16:23:31.252Z,4.60
2019-01-26T16:28:33.957Z,3.43
2019-01-26T16:33:36.572Z,4.17
2019-01-26T16:38:39.246Z,3.57
2019-01-26T16:43:43.806Z,4.47
2019-01-26T16:48:46.392Z,3.87
2019-01-26T16:53:49.006Z,5.00
2019-01-26T16:58:51.851Z,4.60
2019-01-26T17:03:54.631Z,4.33
2019-01-26T17:08:57.478Z,4.40
2019-01-26T17:14:00.214Z,3.40
2019-01-26T17:19:03.292Z,4.90
2019-01-26T17:24:06.051Z,5.77
2019-01-26T17:29:08.758Z,6.10
2019-01-26T17:34:11.509Z,5.67
2019-01-26T17:39:14.325Z,3.97
2019-01-26T17:44:16.867Z,4.00
2019-01-26T17:49:19.605Z,4.13
2019-01-26T17:54:22.266Z,4.43
2019-01-26T17:59:24.786Z,4.73
2019-01-26T18:04:27.326Z,4.30
2019-01-26T18:09:30.226Z,5.23
2019-01-26T18:14:33.086Z,4.37
2019-01-26T18:19:35.906Z,4.87
2019-01-26T18:24:38.585Z,4.17
2019-01-26T18:29:41.165Z,4.70
2019-01-26T18:34:43.842Z,5.37
2019-01-26T18:39:46.606Z,4.03
2019-01-26T18:44:49.666Z,4.50
2019-01-26T18:49:52.187Z,5.63
2019-01-26T18:54:54.687Z,4.73
2019-01-26T18:59:57.362Z,4.17
2019-01-26T19:05:03.494Z,3.67
2019-01-26T19:10:07.666Z,4.67
2019-01-26T19:15:15.326Z,4.57
2019-01-26T19:20:18.122Z,4.27
2019-01-26T19:25:20.786Z,3.93
2019-01-26T19:30:24.469Z,4.47
2019-01-26T19:35:27.310Z,4.37
2019-01-26T19:40:29.966Z,5.10
2019-01-26T19:45:32.547Z,5.27
2019-01-26T19:50:35.203Z,4.30
2019-01-26T19:55:37.986Z,3.97
2019-01-26T20:00:40.734Z,3.80
2019-01-26T20:05:48.062Z,3.73
2019-01-26T20:10:48.146Z,5.30
2019-01-26T20:15:50.883Z,3.90
2019-01-26T20:20:53.546Z,5.30
2019-01-26T20:25:57.182Z,4.50
2019-01-26T20:30:59.689Z,5.77
2019-01-26T20:36:02.262Z,6.20
2019-01-26T20:41:05.086Z,5.73
2019-01-26T20:46:07.788Z,6.10
2019-01-26T20:51:10.641Z,4.60
2019-01-26T20:56:13.367Z,4.57
2019-01-26T21:01:16.362Z,4.50
2019-01-26T21:06:19.184Z,5.47
2019-01-26T21:11:22.787Z,5.03
2019-01-26T21:16:25.607Z,4.97
2019-01-26T21:21:31.973Z,6.07
2019-01-26T21:26:32.746Z,5.37
2019-01-26T21:31:35.354Z,4.63
2019-01-26T21:36:38.066Z,5.40
2019-01-26T21:41:40.822Z,6.43
2019-01-26T21:46:43.726Z,5.67
2019-01-26T21:51:46.515Z,5.93
2019-01-26T21:56:49.066Z,5.57
2019-01-26T22:01:51.802Z,6.43
2019-01-26T22:06:54.501Z,6.17
2019-01-26T22:11:57.428Z,6.63
2019-01-26T22:17:00.048Z,6.53
2019-01-26T22:22:02.666Z,4.90
2019-01-26T22:27:05.368Z,6.13
2019-01-26T22:32:07.966Z,5.90
2019-01-26T22:37:11.126Z,6.30
2019-01-26T22:42:13.847Z,4.73
2019-01-26T22:47:16.386Z,4.47
2019-01-26T22:52:19.107Z,5.83
2019-01-26T22:57:21.726Z,4.60
2019-01-26T23:02:24.525Z,5.00
2019-01-26T23:07:33.525Z,4.03
2019-01-26T23:12:43.618Z,4.43
2019-01-26T23:17:56.226Z,4.00
2019-01-26T23:23:11.018Z,5.07
2019-01-26T23:28:26.459Z,5.30
2019-01-26T23:33:29.142Z,5.97
2019-01-26T23:38:31.691Z,5.00
2019-01-26T23:43:34.426Z,2.57
2019-01-26T23:48:37.151Z,3.03
2019-01-26T23:53:39.591Z,2.20
2019-01-26T23:58:42.256Z,2.37
